createdAt,value
2022-12-18T00:01:40.399Z,-7.08
2022-12-18T00:11:42.443Z,-7.02
2022-12-18T00:21:44.871Z,-6.89
2022-12-18T00:31:46.323Z,-6.83
2022-12-18T00:42:06.025Z,-7.01
2022-12-18T00:52:07.399Z,-7.08
2022-12-18T01:02:08.873Z,-7.14
2022-12-18T01:12:10.376Z,-7.23
2022-12-18T01:22:11.727Z,-7.30
2022-12-18T01:32:13.064Z,-7.36
2022-12-18T01:42:17.120Z,-7.36
2022-12-18T01:52:21.019Z,-7.34
2022-12-18T02:02:23.139Z,-7.39
2022-12-18T02:12:29.168Z,-7.54
2022-12-18T02:22:48.266Z,-7.72
2022-12-18T02:32:55.145Z,-7.69
2022-12-18T02:43:02.806Z,-7.75
2022-12-18T02:53:28.585Z,-7.86
2022-12-18T03:03:48.932Z,-7.83
2022-12-18T03:13:58.699Z,-7.92
2022-12-18T03:24:01.668Z,-7.88
2022-12-18T03:34:07.931Z,-7.90
2022-12-18T03:44:16.858Z,-7.82
2022-12-18T03:54:19.734Z,-7.90
2022-12-18T04:04:23.185Z,-7.97
2022-12-18T04:14:24.549Z,-7.99
2022-12-18T04:24:25.895Z,-8.10
2022-12-18T04:34:27.264Z,-7.93
2022-12-18T04:44:28.593Z,-8.12
2022-12-18T04:54:29.934Z,-8.09
2022-12-18T05:04:31.279Z,-8.10
2022-12-18T05:14:32.747Z,-8.19
2022-12-18T05:24:34.113Z,-8.23
2022-12-18T05:34:35.486Z,-8.22
2022-12-18T05:44:36.834Z,-8.28
2022-12-18T05:54:38.195Z,-8.36
2022-12-18T06:04:39.562Z,-8.39
2022-12-18T06:14:40.994Z,-8.52
2022-12-18T06:24:42.363Z,-8.54
2022-12-18T06:34:43.879Z,-8.49
2022-12-18T06:44:45.243Z,-8.49
2022-12-18T06:54:46.591Z,-8.35
2022-12-18T07:04:50.898Z,-8.40
2022-12-18T07:14:52.258Z,-8.47
2022-12-18T07:24:53.939Z,-8.46
2022-12-18T07:34:55.436Z,-8.47
2022-12-18T07:44:57.294Z,-8.47
2022-12-18T07:54:59.745Z,-8.42
2022-12-18T08:05:01.110Z,-8.39
2022-12-18T08:15:02.531Z,-8.18
2022-12-18T08:25:04.730Z,-8.15
2022-12-18T08:35:07.154Z,-7.94
2022-12-18T08:45:09.179Z,-7.80
2022-12-18T08:55:11.035Z,-7.64
2022-12-18T09:05:12.411Z,-7.48
2022-12-18T09:15:13.774Z,-7.16
2022-12-18T09:25:15.143Z,-6.94
2022-12-18T09:35:16.617Z,-6.75
2022-12-18T09:45:18.931Z,-6.52
2022-12-18T09:55:36.477Z,-6.16
2022-12-18T10:05:43.409Z,-5.86
2022-12-18T10:15:59.918Z,-5.69
2022-12-18T10:26:07.885Z,-5.43
2022-12-18T10:36:09.586Z,-5.06
2022-12-18T10:46:10.911Z,-4.65
2022-12-18T10:56:13.143Z,-4.45
2022-12-18T11:06:22.547Z,-4.22
2022-12-18T11:16:24.751Z,-3.88
2022-12-18T11:26:35.650Z,-3.30
2022-12-18T11:36:44.534Z,-3.18
2022-12-18T11:46:56.225Z,-2.84
2022-12-18T11:57:31.879Z,-2.80
2022-12-18T12:08:16.023Z,-2.11
2022-12-18T12:18:32.535Z,-1.60
2022-12-18T12:28:49.122Z,-1.01
2022-12-18T12:38:56.026Z,-0.74
2022-12-18T12:49:00.601Z,-0.60
2022-12-18T12:59:21.980Z,-0.43
2022-12-18T13:09:23.603Z,-0.27
2022-12-18T13:19:27.308Z,-0.01
2022-12-18T13:29:55.060Z,0.05
2022-12-18T13:39:56.712Z,0.10
2022-12-18T13:49:58.575Z,0.17
2022-12-18T14:00:29.880Z,0.32
2022-12-18T14:10:48.699Z,0.31
2022-12-18T14:20:54.246Z,0.11
2022-12-18T14:30:56.551Z,0.25
2022-12-18T14:41:13.160Z,0.40
2022-12-18T14:51:21.081Z,0.43
2022-12-18T15:01:38.637Z,0.52
2022-12-18T15:11:42.831Z,0.45
2022-12-18T15:21:44.480Z,0.56
2022-12-18T15:32:19.579Z,0.55
2022-12-18T15:42:39.631Z,0.54
2022-12-18T15:52:44.866Z,0.73
2022-12-18T16:02:46.404Z,0.70
2022-12-18T16:12:48.355Z,0.58
2022-12-18T16:22:50.411Z,0.66
2022-12-18T16:32:51.849Z,0.58
2022-12-18T16:42:53.206Z,0.62
2022-12-18T16:52:54.571Z,0.60
2022-12-18T17:02:56.029Z,0.58
2022-12-18T17:12:57.559Z,0.60
2022-12-18T17:22:58.908Z,0.55
2022-12-18T17:33:01.463Z,0.50
2022-12-18T17:43:02.934Z,0.54
2022-12-18T17:53:04.302Z,0.52
2022-12-18T18:03:05.741Z,0.49
2022-12-18T18:13:42.058Z,0.48
2022-12-18T18:23:47.773Z,0.41
2022-12-18T18:33:50.817Z,0.36
2022-12-18T18:43:56.939Z,0.35
2022-12-18T18:53:58.330Z,0.35
2022-12-18T19:04:01.473Z,0.33
2022-12-18T19:14:05.926Z,0.34
2022-12-18T19:24:07.712Z,0.30
2022-12-18T19:34:11.938Z,0.33
2022-12-18T19:44:17.525Z,0.37
2022-12-18T19:54:18.928Z,0.37
2022-12-18T20:04:20.332Z,0.39
2022-12-18T20:14:22.835Z,0.50
2022-12-18T20:24:25.144Z,0.48
2022-12-18T20:34:26.739Z,0.57
2022-12-18T20:44:29.069Z,0.57
2022-12-18T20:54:30.436Z,0.60
2022-12-18T21:04:31.795Z,0.60
2022-12-18T21:14:33.305Z,0.61
2022-12-18T21:24:34.678Z,0.63
2022-12-18T21:34:36.977Z,0.65
2022-12-18T21:44:41.653Z,0.63
2022-12-18T21:54:43.770Z,0.65
2022-12-18T22:04:46.804Z,0.66
2022-12-18T22:14:48.212Z,0.69
2022-12-18T22:24:49.531Z,0.73
2022-12-18T22:34:50.891Z,0.75
2022-12-18T22:44:52.232Z,0.84
2022-12-18T22:54:54.478Z,0.89
2022-12-18T23:04:56.002Z,0.97
2022-12-18T23:14:57.564Z,0.93
2022-12-18T23:24:58.967Z,0.97
2022-12-18T23:35:00.326Z,1.02
2022-12-18T23:45:03.908Z,1.02
2022-12-18T23:55:10.705Z,1.09
